Etusivu
METAR-TAF:

METAR-TAF

Lentoasemat :

Ajaccio, Ranska

Leveyspiiri: 41-55N, Pituuspiiri: 008-48E, korkeus merenpinnasta: 6 m

Tämänhetkinen sää

Tämä raportti tehtiin 44 minuuttia sitten, kello 18.00 UTC
Tuuli 8 kn pohjoisen/luoteesta
Lämpötila 15°C
Kosteus 59%
Ilmanpaine 995 hPa
Näkyvyys 10 km tai enemmän
Hajonneita pilviä 6000 ft:n korkeudessa

METAR: LFKJ 121800Z AUTO 33008KT 9999 BKN060 15/07 Q0995 NOSIG

Aika: 19:44 (18:44 UTC)

Sääennuste

Tämä raportti tehtiin 4 tuntia ja 44 minuuttia sitten, kello 14.00 UTC
Ennuste voimassa 12. päivästä klo 15 UTC - 13. päivään klo 15 UTC
Tuuli 5 kn eri suunnista
Näkyvyys 10 km tai enemmän
Muutamia pilviä 3500 ft:n korkeudessa
Hajonneita pilviä 15000 ft:n korkeudessa
Ajoittain
12. päivästä klo 15 UTC - 12. päivään klo 18 UTC
Tuuli 12 kn luoteesta
Tulossa
13. päivästä klo 06 UTC - 13. päivään klo 09 UTC
Tuuli 12 kn lännestä

TAF: LFKJ 121400Z 1215/1315 VRB05KT 9999 FEW035 BKN150 TEMPO 1215/1218 32012KT BECMG 1306/1309 28012KT

Säähavainnot ja -ennusteet yli 4000 lentoasemalta (METAR- ja TAF-raportit).

Käytössä olevat sääasemat on merkitty karttaan keltaisilla ja punaisilla pisteillä.

Aseta hiiri pisteen päälle nähdäksesi sääaseman nimen.

Klikkaa sitten nähdäksesi säähavainnot ja -ennusteet.

Kartan vaihtaminen: klikkaa mustalla rastilla varustettuja vihreitä pisteitä, niin voit zoomata sisään; viivalla varustettua vihreää pistettä, niin voit zoomata ulos tai vihreitä nuolia, niin pääset viereisille kartoille.


METAR-TAF: